sensor_id;sensor_type;location;lat;lon;timestamp;pressure;altitude;pressure_sealevel;temperature;humidity
41062;BME280;26812;42.662;23.352;2023-03-13T00:00:56;95144.50;;;3.01;48.27
41062;BME280;26812;42.662;23.352;2023-03-13T00:03:22;95151.16;;;3.03;48.34
41062;BME280;26812;42.662;23.352;2023-03-13T00:05:48;95124.28;;;3.00;48.08
41062;BME280;26812;42.662;23.352;2023-03-13T00:08:13;95069.41;;;2.68;48.40
41062;BME280;26812;42.662;23.352;2023-03-13T00:10:40;95147.47;;;3.09;48.61
41062;BME280;26812;42.662;23.352;2023-03-13T00:13:08;95128.78;;;2.84;49.38
41062;BME280;26812;42.662;23.352;2023-03-13T00:15:35;95146.16;;;3.07;48.15
41062;BME280;26812;42.662;23.352;2023-03-13T00:18:00;95133.59;;;2.92;48.39
41062;BME280;26812;42.662;23.352;2023-03-13T00:20:26;95121.88;;;2.88;48.40
41062;BME280;26812;42.662;23.352;2023-03-13T00:22:51;95159.41;;;2.97;48.78
41062;BME280;26812;42.662;23.352;2023-03-13T00:25:17;95159.41;;;2.97;49.16
41062;BME280;26812;42.662;23.352;2023-03-13T00:27:42;95157.53;;;2.92;49.43
41062;BME280;26812;42.662;23.352;2023-03-13T00:30:08;95167.91;;;2.84;49.50
41062;BME280;26812;42.662;23.352;2023-03-13T00:32:39;95166.56;;;2.81;49.48
41062;BME280;26812;42.662;23.352;2023-03-13T00:35:05;95142.56;;;2.66;49.64
41062;BME280;26812;42.662;23.352;2023-03-13T00:37:31;95155.09;;;2.75;49.27
41062;BME280;26812;42.662;23.352;2023-03-13T00:39:56;95142.03;;;2.64;49.45
41062;BME280;26812;42.662;23.352;2023-03-13T00:42:21;95147.31;;;2.48;49.64
41062;BME280;26812;42.662;23.352;2023-03-13T00:44:47;95141.94;;;2.43;50.27
41062;BME280;26812;42.662;23.352;2023-03-13T00:47:12;95149.38;;;2.41;50.18
41062;BME280;26812;42.662;23.352;2023-03-13T00:49:37;95157.72;;;2.60;49.69
41062;BME280;26812;42.662;23.352;2023-03-13T00:52:03;95124.69;;;2.46;49.49
41062;BME280;26812;42.662;23.352;2023-03-13T00:54:28;95145.44;;;2.49;49.52
41062;BME280;26812;42.662;23.352;2023-03-13T00:56:54;95113.97;;;2.26;50.00
41062;BME280;26812;42.662;23.352;2023-03-13T00:59:19;95135.00;;;2.37;50.41
41062;BME280;26812;42.662;23.352;2023-03-13T01:01:45;95154.84;;;2.77;49.41
41062;BME280;26812;42.662;23.352;2023-03-13T01:04:12;95147.59;;;2.62;49.33
41062;BME280;26812;42.662;23.352;2023-03-13T01:06:39;95157.47;;;2.67;49.63
41062;BME280;26812;42.662;23.352;2023-03-13T01:09:09;95158.84;;;2.79;49.35
41062;BME280;26812;42.662;23.352;2023-03-13T01:11:37;95162.56;;;2.78;50.03
41062;BME280;26812;42.662;23.352;2023-03-13T01:14:09;95166.06;;;2.89;48.72
41062;BME280;26812;42.662;23.352;2023-03-13T01:16:35;95151.88;;;2.73;48.48
41062;BME280;26812;42.662;23.352;2023-03-13T01:19:07;95158.22;;;2.57;49.82
41062;BME280;26812;42.662;23.352;2023-03-13T01:21:34;95158.19;;;2.47;49.87
41062;BME280;26812;42.662;23.352;2023-03-13T01:23:59;95154.06;;;2.82;49.65
41062;BME280;26812;42.662;23.352;2023-03-13T01:26:26;95146.25;;;2.60;49.95
41062;BME280;26812;42.662;23.352;2023-03-13T01:28:51;95142.25;;;2.47;49.66
41062;BME280;26812;42.662;23.352;2023-03-13T01:33:52;95165.44;;;2.72;49.57
41062;BME280;26812;42.662;23.352;2023-03-13T01:36:19;95154.59;;;2.84;49.08
41062;BME280;26812;42.662;23.352;2023-03-13T01:38:52;95175.38;;;2.87;49.35
41062;BME280;26812;42.662;23.352;2023-03-13T01:41:19;95143.78;;;2.38;49.04
41062;BME280;26812;42.662;23.352;2023-03-13T01:43:46;95161.34;;;2.39;50.20
41062;BME280;26812;42.662;23.352;2023-03-13T01:46:19;95179.38;;;2.27;50.34
41062;BME280;26812;42.662;23.352;2023-03-13T01:51:34;95164.31;;;2.00;50.41
41062;BME280;26812;42.662;23.352;2023-03-13T01:54:11;95178.38;;;2.43;50.41
41062;BME280;26812;42.662;23.352;2023-03-13T01:59:12;95162.81;;;2.14;50.54
41062;BME280;26812;42.662;23.352;2023-03-13T02:01:40;95166.47;;;2.56;49.50
41062;BME280;26812;42.662;23.352;2023-03-13T02:04:07;95174.09;;;2.42;49.09
41062;BME280;26812;42.662;23.352;2023-03-13T02:06:34;95181.00;;;2.38;50.05
41062;BME280;26812;42.662;23.352;2023-03-13T02:09:06;95177.16;;;2.13;50.63
41062;BME280;26812;42.662;23.352;2023-03-13T02:11:48;95149.97;;;2.01;51.72
41062;BME280;26812;42.662;23.352;2023-03-13T02:14:19;95160.16;;;2.14;51.48
41062;BME280;26812;42.662;23.352;2023-03-13T02:16:46;95184.22;;;2.40;50.12
41062;BME280;26812;42.662;23.352;2023-03-13T02:19:28;95176.13;;;2.20;51.08
41062;BME280;26812;42.662;23.352;2023-03-13T02:24:53;95191.38;;;2.34;51.61
41062;BME280;26812;42.662;23.352;2023-03-13T02:27:21;95192.72;;;2.42;50.85
41062;BME280;26812;42.662;23.352;2023-03-13T02:29:46;95192.66;;;2.27;51.78
41062;BME280;26812;42.662;23.352;2023-03-13T02:32:13;95204.91;;;2.33;51.74
41062;BME280;26812;42.662;23.352;2023-03-13T02:34:39;95202.81;;;2.40;52.06
41062;BME280;26812;42.662;23.352;2023-03-13T02:37:06;95143.53;;;1.87;52.86
41062;BME280;26812;42.662;23.352;2023-03-13T02:39:36;95225.06;;;2.24;52.83
41062;BME280;26812;42.662;23.352;2023-03-13T02:42:03;95225.34;;;2.22;53.63
41062;BME280;26812;42.662;23.352;2023-03-13T02:44:29;95211.09;;;2.01;53.18
41062;BME280;26812;42.662;23.352;2023-03-13T02:46:54;95234.75;;;1.66;54.68
41062;BME280;26812;42.662;23.352;2023-03-13T02:49:25;95244.06;;;1.68;54.68
41062;BME280;26812;42.662;23.352;2023-03-13T02:51:53;95233.59;;;1.57;55.23
41062;BME280;26812;42.662;23.352;2023-03-13T02:54:26;95245.91;;;1.68;55.55
41062;BME280;26812;42.662;23.352;2023-03-13T02:56:55;95238.50;;;1.43;56.14
41062;BME280;26812;42.662;23.352;2023-03-13T02:59:22;95245.38;;;1.66;56.49
41062;BME280;26812;42.662;23.352;2023-03-13T03:01:47;95229.78;;;1.47;56.84
41062;BME280;26812;42.662;23.352;2023-03-13T03:04:23;95237.31;;;1.55;57.03
41062;BME280;26812;42.662;23.352;2023-03-13T03:06:49;95237.31;;;1.55;56.76
41062;BME280;26812;42.662;23.352;2023-03-13T03:09:15;95227.28;;;1.63;56.42
41062;BME280;26812;42.662;23.352;2023-03-13T03:11:41;95235.66;;;1.81;56.36
41062;BME280;26812;42.662;23.352;2023-03-13T03:14:07;95211.66;;;1.71;56.11
41062;BME280;26812;42.662;23.352;2023-03-13T03:16:33;95227.88;;;1.70;56.69
41062;BME280;26812;42.662;23.352;2023-03-13T03:18:58;95246.47;;;1.70;56.82
41062;BME280;26812;42.662;23.352;2023-03-13T03:21:24;95254.69;;;1.68;57.30
41062;BME280;26812;42.662;23.352;2023-03-13T03:23:49;95258.56;;;1.55;58.01
41062;BME280;26812;42.662;23.352;2023-03-13T03:26:15;95239.78;;;1.35;58.28
41062;BME280;26812;42.662;23.352;2023-03-13T03:28:41;95274.09;;;1.42;58.53
41062;BME280;26812;42.662;23.352;2023-03-13T03:31:09;95267.28;;;1.02;59.72
41062;BME280;26812;42.662;23.352;2023-03-13T03:33:35;95282.50;;;1.12;59.54
41062;BME280;26812;42.662;23.352;2023-03-13T03:36:03;95303.09;;;1.00;60.12
41062;BME280;26812;42.662;23.352;2023-03-13T03:38:29;95299.44;;;1.06;60.44
41062;BME280;26812;42.662;23.352;2023-03-13T03:40:55;95293.56;;;1.26;59.52
41062;BME280;26812;42.662;23.352;2023-03-13T03:43:20;95288.19;;;1.20;59.38
41062;BME280;26812;42.662;23.352;2023-03-13T03:45:46;95255.81;;;0.97;58.91
41062;BME280;26812;42.662;23.352;2023-03-13T03:48:11;95309.91;;;1.17;59.10
41062;BME280;26812;42.662;23.352;2023-03-13T03:50:36;95318.38;;;1.14;59.78
41062;BME280;26812;42.662;23.352;2023-03-13T03:53:02;95319.72;;;1.17;60.04
41062;BME280;26812;42.662;23.352;2023-03-13T03:55:28;95321.53;;;1.11;59.64
41062;BME280;26812;42.662;23.352;2023-03-13T03:57:53;95316.53;;;1.15;59.81
41062;BME280;26812;42.662;23.352;2023-03-13T04:00:19;95302.44;;;1.14;59.03
41062;BME280;26812;42.662;23.352;2023-03-13T04:02:44;95306.38;;;0.90;59.55
41062;BME280;26812;42.662;23.352;2023-03-13T04:05:10;95328.00;;;0.99;59.64
41062;BME280;26812;42.662;23.352;2023-03-13T04:07:35;95335.72;;;1.00;59.77
41062;BME280;26812;42.662;23.352;2023-03-13T04:10:02;95337.91;;;0.86;61.09
41062;BME280;26812;42.662;23.352;2023-03-13T04:12:28;95342.41;;;1.24;59.71
41062;BME280;26812;42.662;23.352;2023-03-13T04:14:53;95315.00;;;0.97;59.71
41062;BME280;26812;42.662;23.352;2023-03-13T04:17:18;95352.50;;;1.06;60.02
41062;BME280;26812;42.662;23.352;2023-03-13T04:19:44;95351.44;;;0.85;60.84
41062;BME280;26812;42.662;23.352;2023-03-13T04:22:09;95350.31;;;0.81;61.07
41062;BME280;26812;42.662;23.352;2023-03-13T04:24:35;95299.38;;;0.23;61.68
41062;BME280;26812;42.662;23.352;2023-03-13T04:27:00;95354.44;;;0.72;61.26
41062;BME280;26812;42.662;23.352;2023-03-13T04:29:28;95336.84;;;0.66;60.85
41062;BME280;26812;42.662;23.352;2023-03-13T04:31:54;95366.72;;;0.61;61.61
41062;BME280;26812;42.662;23.352;2023-03-13T04:34:19;95358.50;;;0.41;62.09
41062;BME280;26812;42.662;23.352;2023-03-13T04:36:45;95323.41;;;0.34;61.61
41062;BME280;26812;42.662;23.352;2023-03-13T04:39:10;95366.44;;;0.41;62.25
41062;BME280;26812;42.662;23.352;2023-03-13T04:41:36;95371.25;;;0.44;61.97
41062;BME280;26812;42.662;23.352;2023-03-13T04:44:01;95387.63;;;0.57;62.07
41062;BME280;26812;42.662;23.352;2023-03-13T04:46:26;95371.81;;;0.12;62.90
41062;BME280;26812;42.662;23.352;2023-03-13T04:48:52;95387.06;;;0.05;63.35
41062;BME280;26812;42.662;23.352;2023-03-13T04:51:17;95383.69;;;0.26;63.57
41062;BME280;26812;42.662;23.352;2023-03-13T04:53:42;95405.56;;;0.50;62.78
41062;BME280;26812;42.662;23.352;2023-03-13T04:56:10;95364.59;;;0.24;62.41
41062;BME280;26812;42.662;23.352;2023-03-13T04:58:36;95398.97;;;0.53;62.73
41062;BME280;26812;42.662;23.352;2023-03-13T05:01:01;95399.69;;;0.48;62.83
41062;BME280;26812;42.662;23.352;2023-03-13T05:03:27;95397.38;;;1.07;61.72
41062;BME280;26812;42.662;23.352;2023-03-13T05:05:52;95411.56;;;1.18;61.01
41062;BME280;26812;42.662;23.352;2023-03-13T05:08:17;95406.88;;;1.03;61.49
41062;BME280;26812;42.662;23.352;2023-03-13T05:10:43;95388.06;;;0.88;61.77
41062;BME280;26812;42.662;23.352;2023-03-13T05:13:09;95388.47;;;0.97;61.68
41062;BME280;26812;42.662;23.352;2023-03-13T05:15:34;95392.97;;;0.96;61.52
41062;BME280;26812;42.662;23.352;2023-03-13T05:17:59;95414.75;;;0.98;61.74
41062;BME280;26812;42.662;23.352;2023-03-13T05:20:25;95384.47;;;0.77;62.45
41062;BME280;26812;42.662;23.352;2023-03-13T05:22:50;95408.41;;;0.99;62.19
41062;BME280;26812;42.662;23.352;2023-03-13T05:25:16;95418.22;;;1.20;61.40
41062;BME280;26812;42.662;23.352;2023-03-13T05:27:41;95424.50;;;1.31;60.60
41062;BME280;26812;42.662;23.352;2023-03-13T05:30:07;95426.16;;;1.37;59.99
41062;BME280;26812;42.662;23.352;2023-03-13T05:32:33;95432.47;;;1.31;59.84
41062;BME280;26812;42.662;23.352;2023-03-13T05:34:58;95428.84;;;1.59;59.41
41062;BME280;26812;42.662;23.352;2023-03-13T05:37:24;95444.31;;;1.67;59.08
41062;BME280;26812;42.662;23.352;2023-03-13T05:39:49;95409.13;;;1.55;58.73
41062;BME280;26812;42.662;23.352;2023-03-13T05:42:15;95428.88;;;1.64;58.96
41062;BME280;26812;42.662;23.352;2023-03-13T05:44:40;95426.28;;;1.91;57.47
41062;BME280;26812;42.662;23.352;2023-03-13T05:47:05;95430.38;;;1.55;58.17
41062;BME280;26812;42.662;23.352;2023-03-13T05:49:31;95425.63;;;1.57;58.35
41062;BME280;26812;42.662;23.352;2023-03-13T05:51:56;95404.34;;;1.13;59.64
41062;BME280;26812;42.662;23.352;2023-03-13T05:54:21;95452.53;;;1.66;59.60
41062;BME280;26812;42.662;23.352;2023-03-13T05:56:47;95431.94;;;1.78;59.52
41062;BME280;26812;42.662;23.352;2023-03-13T05:59:14;95460.75;;;4.09;55.54
41062;BME280;26812;42.662;23.352;2023-03-13T06:01:40;95462.25;;;8.02;47.08
41062;BME280;26812;42.662;23.352;2023-03-13T06:04:05;95448.03;;;11.37;37.43
41062;BME280;26812;42.662;23.352;2023-03-13T06:06:31;95430.88;;;11.95;32.16
41062;BME280;26812;42.662;23.352;2023-03-13T06:08:56;95444.28;;;13.73;30.93
41062;BME280;26812;42.662;23.352;2023-03-13T06:11:21;95435.63;;;15.39;27.68
41062;BME280;26812;42.662;23.352;2023-03-13T06:13:47;95441.28;;;17.01;25.18
41062;BME280;26812;42.662;23.352;2023-03-13T06:16:12;95431.50;;;17.68;23.88
41062;BME280;26812;42.662;23.352;2023-03-13T06:18:38;95461.84;;;19.51;21.95
41062;BME280;26812;42.662;23.352;2023-03-13T06:21:03;95441.31;;;19.38;21.58
41062;BME280;26812;42.662;23.352;2023-03-13T06:23:28;95443.91;;;19.69;20.62
41062;BME280;26812;42.662;23.352;2023-03-13T06:25:54;95454.75;;;20.08;20.55
41062;BME280;26812;42.662;23.352;2023-03-13T06:28:20;95424.91;;;20.22;19.71
41062;BME280;26812;42.662;23.352;2023-03-13T06:30:45;95439.19;;;20.58;18.98
41062;BME280;26812;42.662;23.352;2023-03-13T06:33:11;95460.72;;;20.59;19.12
41062;BME280;26812;42.662;23.352;2023-03-13T06:35:40;95445.78;;;19.88;19.10
41062;BME280;26812;42.662;23.352;2023-03-13T06:38:07;95432.41;;;18.86;20.23
41062;BME280;26812;42.662;23.352;2023-03-13T06:40:33;95425.56;;;15.52;24.18
41062;BME280;26812;42.662;23.352;2023-03-13T06:42:58;95420.53;;;14.17;26.24
41062;BME280;26812;42.662;23.352;2023-03-13T06:45:24;95419.59;;;15.26;25.43
41062;BME280;26812;42.662;23.352;2023-03-13T06:47:49;95437.44;;;17.30;23.13
41062;BME280;26812;42.662;23.352;2023-03-13T06:50:16;95424.13;;;18.32;22.13
41062;BME280;26812;42.662;23.352;2023-03-13T06:52:48;95437.34;;;20.20;19.96
41062;BME280;26812;42.662;23.352;2023-03-13T06:55:14;95439.13;;;18.07;21.21
41062;BME280;26812;42.662;23.352;2023-03-13T06:57:40;95430.47;;;16.04;23.19
41062;BME280;26812;42.662;23.352;2023-03-13T07:00:06;95438.81;;;17.52;21.55
41062;BME280;26812;42.662;23.352;2023-03-13T07:02:31;95425.06;;;19.64;20.61
41062;BME280;26812;42.662;23.352;2023-03-13T07:04:57;95420.31;;;21.69;18.93
41062;BME280;26812;42.662;23.352;2023-03-13T07:07:22;95410.03;;;21.99;18.45
41062;BME280;26812;42.662;23.352;2023-03-13T07:09:48;95421.72;;;22.34;17.94
41062;BME280;26812;42.662;23.352;2023-03-13T07:12:13;95437.56;;;22.47;17.54
41062;BME280;26812;42.662;23.352;2023-03-13T07:14:39;95436.56;;;21.85;17.90
41062;BME280;26812;42.662;23.352;2023-03-13T07:17:04;95442.47;;;22.27;17.93
41062;BME280;26812;42.662;23.352;2023-03-13T07:19:30;95439.50;;;23.78;17.24
41062;BME280;26812;42.662;23.352;2023-03-13T07:21:55;95422.88;;;23.53;16.65
41062;BME280;26812;42.662;23.352;2023-03-13T07:24:21;95410.84;;;24.14;16.04
41062;BME280;26812;42.662;23.352;2023-03-13T07:26:47;95426.25;;;24.30;15.64
41062;BME280;26812;42.662;23.352;2023-03-13T07:29:12;95425.47;;;24.43;15.84
41062;BME280;26812;42.662;23.352;2023-03-13T07:31:37;95429.13;;;23.43;16.53
41062;BME280;26812;42.662;23.352;2023-03-13T07:34:03;95428.59;;;24.99;16.02
41062;BME280;26812;42.662;23.352;2023-03-13T07:36:29;95427.91;;;25.86;14.40
41062;BME280;26812;42.662;23.352;2023-03-13T07:38:55;95404.56;;;24.99;15.10
41062;BME280;26812;42.662;23.352;2023-03-13T07:41:20;95426.22;;;25.12;14.62
41062;BME280;26812;42.662;23.352;2023-03-13T07:43:46;95435.09;;;25.73;14.69
41062;BME280;26812;42.662;23.352;2023-03-13T07:46:13;95422.06;;;26.32;14.12
41062;BME280;26812;42.662;23.352;2023-03-13T07:48:41;95431.84;;;26.96;13.98
41062;BME280;26812;42.662;23.352;2023-03-13T07:51:12;95418.47;;;28.23;12.52
41062;BME280;26812;42.662;23.352;2023-03-13T07:53:37;95437.94;;;27.89;13.06
41062;BME280;26812;42.662;23.352;2023-03-13T07:56:09;95430.91;;;27.81;13.08
41062;BME280;26812;42.662;23.352;2023-03-13T07:58:36;95431.09;;;27.97;12.72
41062;BME280;26812;42.662;23.352;2023-03-13T08:03:40;95381.25;;;27.97;12.62
41062;BME280;26812;42.662;23.352;2023-03-13T08:06:11;95414.72;;;28.37;12.79
41062;BME280;26812;42.662;23.352;2023-03-13T08:08:38;95393.78;;;29.26;11.88
41062;BME280;26812;42.662;23.352;2023-03-13T08:11:12;95405.88;;;27.92;12.55
41062;BME280;26812;42.662;23.352;2023-03-13T08:13:38;95412.97;;;26.87;13.31
41062;BME280;26812;42.662;23.352;2023-03-13T08:18:33;95381.78;;;24.63;14.66
41062;BME280;26812;42.662;23.352;2023-03-13T08:21:04;95397.53;;;24.41;15.08
41062;BME280;26812;42.662;23.352;2023-03-13T08:23:31;95395.19;;;24.33;15.23
41062;BME280;26812;42.662;23.352;2023-03-13T08:26:01;95406.78;;;21.87;17.58
41062;BME280;26812;42.662;23.352;2023-03-13T08:28:27;95404.28;;;21.07;18.28
41062;BME280;26812;42.662;23.352;2023-03-13T08:30:52;95397.72;;;22.71;16.61
41062;BME280;26812;42.662;23.352;2023-03-13T08:33:18;95386.38;;;21.44;17.99
41062;BME280;26812;42.662;23.352;2023-03-13T08:35:43;95400.09;;;21.84;17.93
41062;BME280;26812;42.662;23.352;2023-03-13T08:38:09;95399.47;;;19.53;20.16
41062;BME280;26812;42.662;23.352;2023-03-13T08:40:34;95381.84;;;21.62;18.39
41062;BME280;26812;42.662;23.352;2023-03-13T08:42:59;95405.38;;;22.99;17.15
41062;BME280;26812;42.662;23.352;2023-03-13T08:45:25;95405.72;;;21.24;18.39
41062;BME280;26812;42.662;23.352;2023-03-13T08:47:53;95389.06;;;22.14;17.41
41062;BME280;26812;42.662;23.352;2023-03-13T08:50:19;95379.31;;;22.24;17.16
41062;BME280;26812;42.662;23.352;2023-03-13T08:52:44;95364.63;;;22.53;16.85
41062;BME280;26812;42.662;23.352;2023-03-13T08:55:10;95382.66;;;23.09;16.31
41062;BME280;26812;42.662;23.352;2023-03-13T08:58:02;95368.34;;;23.62;16.25
41062;BME280;26812;42.662;23.352;2023-03-13T09:00:35;95399.81;;;23.86;16.37
41062;BME280;26812;42.662;23.352;2023-03-13T09:03:01;95382.19;;;24.19;15.91
41062;BME280;26812;42.662;23.352;2023-03-13T09:05:26;95387.88;;;23.39;16.11
41062;BME280;26812;42.662;23.352;2023-03-13T09:07:52;95387.59;;;22.82;16.58
41062;BME280;26812;42.662;23.352;2023-03-13T09:10:18;95395.25;;;22.59;16.67
41062;BME280;26812;42.662;23.352;2023-03-13T09:12:43;95364.69;;;22.64;16.74
41062;BME280;26812;42.662;23.352;2023-03-13T09:15:11;95350.00;;;22.97;16.33
41062;BME280;26812;42.662;23.352;2023-03-13T09:17:36;95400.25;;;22.98;16.46
41062;BME280;26812;42.662;23.352;2023-03-13T09:20:02;95381.63;;;22.70;16.60
41062;BME280;26812;42.662;23.352;2023-03-13T09:22:28;95376.59;;;23.66;16.29
41062;BME280;26812;42.662;23.352;2023-03-13T09:24:54;95375.38;;;23.56;16.26
41062;BME280;26812;42.662;23.352;2023-03-13T09:27:19;95370.00;;;17.12;21.84
41062;BME280;26812;42.662;23.352;2023-03-13T09:29:44;95319.44;;;11.64;28.15
41062;BME280;26812;42.662;23.352;2023-03-13T09:32:10;95340.44;;;13.14;28.64
41062;BME280;26812;42.662;23.352;2023-03-13T09:34:35;95350.16;;;15.25;25.15
41062;BME280;26812;42.662;23.352;2023-03-13T09:37:01;95369.63;;;16.21;25.29
41062;BME280;26812;42.662;23.352;2023-03-13T09:39:26;95383.06;;;17.34;22.47
41062;BME280;26812;42.662;23.352;2023-03-13T09:42:01;95364.69;;;17.75;21.92
41062;BME280;26812;42.662;23.352;2023-03-13T09:44:32;95385.81;;;18.09;22.40
41062;BME280;26812;42.662;23.352;2023-03-13T09:47:09;95392.84;;;18.77;21.01
41062;BME280;26812;42.662;23.352;2023-03-13T09:49:40;95383.81;;;19.31;20.20
41062;BME280;26812;42.662;23.352;2023-03-13T09:52:12;95386.56;;;19.73;20.15
41062;BME280;26812;42.662;23.352;2023-03-13T09:57:33;95382.94;;;21.20;18.15
41062;BME280;26812;42.662;23.352;2023-03-13T10:00:04;95370.84;;;21.58;17.90
41062;BME280;26812;42.662;23.352;2023-03-13T10:02:37;95374.53;;;21.73;17.81
41062;BME280;26812;42.662;23.352;2023-03-13T10:05:22;95378.22;;;20.87;19.11
41062;BME280;26812;42.662;23.352;2023-03-13T10:07:48;95367.19;;;21.44;18.06
41062;BME280;26812;42.662;23.352;2023-03-13T10:10:18;95359.41;;;20.06;20.09
41062;BME280;26812;42.662;23.352;2023-03-13T10:12:47;95357.66;;;19.95;20.10
41062;BME280;26812;42.662;23.352;2023-03-13T10:15:36;95355.91;;;20.59;19.14
41062;BME280;26812;42.662;23.352;2023-03-13T10:18:15;95343.50;;;20.15;19.22
41062;BME280;26812;42.662;23.352;2023-03-13T10:20:42;95338.66;;;20.05;20.20
41062;BME280;26812;42.662;23.352;2023-03-13T10:25:44;95328.69;;;19.48;20.78
41062;BME280;26812;42.662;23.352;2023-03-13T10:28:16;95333.72;;;18.84;21.14
41062;BME280;26812;42.662;23.352;2023-03-13T10:30:49;95322.59;;;18.58;21.54
41062;BME280;26812;42.662;23.352;2023-03-13T10:33:22;95325.28;;;18.19;21.64
41062;BME280;26812;42.662;23.352;2023-03-13T10:36:03;95308.31;;;18.45;22.36
41062;BME280;26812;42.662;23.352;2023-03-13T10:38:32;95309.97;;;19.27;20.98
41062;BME280;26812;42.662;23.352;2023-03-13T10:41:00;95305.81;;;19.33;20.21
41062;BME280;26812;42.662;23.352;2023-03-13T10:43:27;95313.94;;;18.91;20.51
41062;BME280;26812;42.662;23.352;2023-03-13T10:45:53;95313.56;;;18.54;21.28
41062;BME280;26812;42.662;23.352;2023-03-13T10:48:29;95308.84;;;18.00;21.81
41062;BME280;26812;42.662;23.352;2023-03-13T10:50:55;95273.75;;;17.04;23.15
41062;BME280;26812;42.662;23.352;2023-03-13T10:58:33;95294.06;;;17.38;23.53
41062;BME280;26812;42.662;23.352;2023-03-13T11:01:29;95272.81;;;17.44;22.36
41062;BME280;26812;42.662;23.352;2023-03-13T11:04:31;95262.13;;;16.35;23.59
41062;BME280;26812;42.662;23.352;2023-03-13T11:07:04;95274.56;;;15.96;24.81
41062;BME280;26812;42.662;23.352;2023-03-13T11:09:30;95277.72;;;16.79;23.32
41062;BME280;26812;42.662;23.352;2023-03-13T11:12:13;95253.34;;;16.54;23.68
41062;BME280;26812;42.662;23.352;2023-03-13T11:14:43;95243.25;;;16.55;24.43
41062;BME280;26812;42.662;23.352;2023-03-13T11:17:25;95266.75;;;15.82;24.95
41062;BME280;26812;42.662;23.352;2023-03-13T11:20:39;95269.50;;;13.17;27.61
41062;BME280;26812;42.662;23.352;2023-03-13T11:22:49;95253.06;;;14.52;27.22
41062;BME280;26812;42.662;23.352;2023-03-13T11:25:21;95258.00;;;15.52;26.38
41062;BME280;26812;42.662;23.352;2023-03-13T11:27:49;95252.91;;;16.40;24.66
41062;BME280;26812;42.662;23.352;2023-03-13T11:32:55;95227.31;;;16.97;24.05
41062;BME280;26812;42.662;23.352;2023-03-13T11:36:07;95211.50;;;17.18;23.39
41062;BME280;26812;42.662;23.352;2023-03-13T11:38:41;95240.56;;;17.61;23.83
41062;BME280;26812;42.662;23.352;2023-03-13T11:41:32;95239.78;;;17.61;22.39
41062;BME280;26812;42.662;23.352;2023-03-13T11:46:50;95223.50;;;16.58;23.65
41062;BME280;26812;42.662;23.352;2023-03-13T11:52:29;95206.22;;;17.10;24.34
41062;BME280;26812;42.662;23.352;2023-03-13T12:03:10;95203.25;;;17.15;23.06
41062;BME280;26812;42.662;23.352;2023-03-13T12:05:46;95195.78;;;17.12;23.60
41062;BME280;26812;42.662;23.352;2023-03-13T12:08:22;95167.84;;;16.83;23.48
41062;BME280;26812;42.662;23.352;2023-03-13T12:13:28;95157.22;;;16.34;24.46
41062;BME280;26812;42.662;23.352;2023-03-13T12:15:59;95168.81;;;16.47;24.73
41062;BME280;26812;42.662;23.352;2023-03-13T12:18:36;95164.59;;;16.77;24.11
41062;BME280;26812;42.662;23.352;2023-03-13T12:24:11;95134.63;;;16.62;24.98
41062;BME280;26812;42.662;23.352;2023-03-13T12:29:05;95158.91;;;16.98;24.88
41062;BME280;26812;42.662;23.352;2023-03-13T12:31:46;95153.16;;;17.51;23.81
41062;BME280;26812;42.662;23.352;2023-03-13T12:34:33;95147.47;;;17.75;23.40
41062;BME280;26812;42.662;23.352;2023-03-13T12:37:22;95144.50;;;17.64;23.82
41062;BME280;26812;42.662;23.352;2023-03-13T12:40:26;95160.97;;;17.36;23.59
41062;BME280;26812;42.662;23.352;2023-03-13T12:42:56;95151.69;;;16.03;24.82
41062;BME280;26812;42.662;23.352;2023-03-13T12:45:24;95150.00;;;16.26;24.87
41062;BME280;26812;42.662;23.352;2023-03-13T12:48:24;95151.78;;;15.30;25.99
41062;BME280;26812;42.662;23.352;2023-03-13T12:59:18;95146.25;;;15.63;27.69
41062;BME280;26812;42.662;23.352;2023-03-13T13:01:50;95153.00;;;15.57;25.96
41062;BME280;26812;42.662;23.352;2023-03-13T13:04:19;95155.44;;;15.98;25.48
41062;BME280;26812;42.662;23.352;2023-03-13T13:07:17;95154.34;;;16.43;25.15
41062;BME280;26812;42.662;23.352;2023-03-13T13:12:43;95147.25;;;15.70;25.98
41062;BME280;26812;42.662;23.352;2023-03-13T13:15:25;95128.38;;;15.25;26.01
41062;BME280;26812;42.662;23.352;2023-03-13T13:18:09;95157.56;;;14.79;27.46
41062;BME280;26812;42.662;23.352;2023-03-13T13:20:45;95141.50;;;14.86;28.63
41062;BME280;26812;42.662;23.352;2023-03-13T13:23:47;95155.16;;;15.51;25.98
41062;BME280;26812;42.662;23.352;2023-03-13T13:28:56;95138.69;;;15.96;26.21
41062;BME280;26812;42.662;23.352;2023-03-13T13:37:00;95138.19;;;15.54;25.51
41062;BME280;26812;42.662;23.352;2023-03-13T13:39:42;95132.72;;;15.02;26.11
41062;BME280;26812;42.662;23.352;2023-03-13T13:45:20;95129.19;;;15.38;26.21
41062;BME280;26812;42.662;23.352;2023-03-13T13:47:48;95135.25;;;15.47;26.41
41062;BME280;26812;42.662;23.352;2023-03-13T13:50:26;95136.41;;;15.58;26.55
41062;BME280;26812;42.662;23.352;2023-03-13T13:52:51;95120.34;;;15.65;26.01
41062;BME280;26812;42.662;23.352;2023-03-13T13:58:17;95122.50;;;15.35;26.04
41062;BME280;26812;42.662;23.352;2023-03-13T14:00:55;95123.53;;;15.18;26.71
41062;BME280;26812;42.662;23.352;2023-03-13T14:03:25;95118.19;;;15.59;27.08
41062;BME280;26812;42.662;23.352;2023-03-13T14:05:55;95121.06;;;15.78;26.63
41062;BME280;26812;42.662;23.352;2023-03-13T14:08:29;95123.69;;;15.74;26.36
41062;BME280;26812;42.662;23.352;2023-03-13T14:13:43;95106.69;;;14.76;28.35
41062;BME280;26812;42.662;23.352;2023-03-13T14:16:23;95089.34;;;13.16;30.12
41062;BME280;26812;42.662;23.352;2023-03-13T14:18:49;95108.75;;;12.50;31.41
41062;BME280;26812;42.662;23.352;2023-03-13T14:21:21;95089.97;;;12.62;31.12
41062;BME280;26812;42.662;23.352;2023-03-13T14:23:46;95104.25;;;13.30;30.53